createdAt,value
2018-09-14T00:00:07.091Z,1012.73
2018-09-14T00:01:07.054Z,1012.71
2018-09-14T00:02:07.020Z,1012.77
2018-09-14T00:03:06.987Z,1012.72
2018-09-14T00:04:06.952Z,1012.74
2018-09-14T00:05:06.921Z,1012.72
2018-09-14T00:06:07.808Z,1012.69
2018-09-14T00:07:06.857Z,1012.71
2018-09-14T00:08:06.838Z,1012.72
2018-09-14T00:09:06.795Z,1012.58
2018-09-14T00:10:06.754Z,1012.68
2018-09-14T00:11:06.716Z,1012.71
2018-09-14T00:12:06.682Z,1012.71
2018-09-14T00:13:06.656Z,1012.69
2018-09-14T00:14:06.624Z,1012.72
2018-09-14T00:15:06.589Z,1012.74
2018-09-14T00:16:06.550Z,1012.70
2018-09-14T00:17:06.519Z,1012.74
2018-09-14T00:18:06.485Z,1012.67
2018-09-14T00:19:06.450Z,1012.66
2018-09-14T00:20:06.841Z,1012.74
2018-09-14T00:21:06.382Z,1012.71
2018-09-14T00:22:06.380Z,1012.73
2018-09-14T00:23:06.342Z,1012.66
2018-09-14T00:24:06.862Z,1012.70
2018-09-14T00:25:06.247Z,1012.69
2018-09-14T00:26:06.214Z,1012.65
2018-09-14T00:27:06.204Z,1012.68
2018-09-14T00:28:06.157Z,1012.55
2018-09-14T00:29:06.111Z,1012.62
2018-09-14T00:30:06.079Z,1012.57
2018-09-14T00:31:06.083Z,1012.60
2018-09-14T00:32:06.199Z,1012.64
2018-09-14T00:33:05.989Z,1012.54
2018-09-14T00:34:05.944Z,1012.62
2018-09-14T00:35:05.915Z,1012.61
2018-09-14T00:36:05.869Z,1012.62
2018-09-14T00:37:05.840Z,1012.61
2018-09-14T00:38:05.815Z,1012.54
2018-09-14T00:39:05.784Z,1012.55
2018-09-14T00:40:05.739Z,1012.59
2018-09-14T00:41:05.706Z,1012.60
2018-09-14T00:42:05.671Z,1012.53
2018-09-14T00:43:05.636Z,1012.55
2018-09-14T00:44:05.606Z,1012.57
2018-09-14T00:45:05.572Z,1012.51
2018-09-14T00:46:05.579Z,1012.57
2018-09-14T00:47:05.508Z,1012.53
2018-09-14T00:48:05.462Z,1012.55
2018-09-14T00:49:05.478Z,1012.55
2018-09-14T00:50:05.397Z,1012.54
2018-09-14T00:51:05.362Z,1012.57
2018-09-14T00:52:05.334Z,1012.54
2018-09-14T00:53:05.294Z,1012.51
2018-09-14T00:54:05.279Z,1012.61
2018-09-14T00:55:05.231Z,1012.58
2018-09-14T00:56:05.208Z,1012.45
2018-09-14T00:57:05.161Z,1012.59
2018-09-14T00:58:05.160Z,1012.54
2018-09-14T00:59:05.102Z,1012.58
2018-09-14T01:00:05.055Z,1012.56
2018-09-14T01:01:05.032Z,1012.58
2018-09-14T01:02:05.000Z,1012.56
2018-09-14T01:03:04.963Z,1012.52
2018-09-14T01:04:04.922Z,1012.54
2018-09-14T01:05:04.894Z,1012.55
2018-09-14T01:06:04.863Z,1012.56
2018-09-14T01:07:04.813Z,1012.57
2018-09-14T01:08:04.782Z,1012.55
2018-09-14T01:09:04.762Z,1012.57
2018-09-14T01:10:04.727Z,1012.50
2018-09-14T01:11:04.690Z,1012.55
2018-09-14T01:12:04.645Z,1012.54
2018-09-14T01:13:04.613Z,1012.54
2018-09-14T01:14:04.576Z,1012.56
2018-09-14T01:15:04.548Z,1012.49
2018-09-14T01:16:04.510Z,1012.50
2018-09-14T01:17:04.490Z,1012.58
2018-09-14T01:18:04.440Z,1012.55
2018-09-14T01:19:04.445Z,1012.55
2018-09-14T01:20:04.390Z,1012.57
2018-09-14T01:21:04.343Z,1012.55
2018-09-14T01:22:04.308Z,1012.50
2018-09-14T01:23:04.267Z,1012.48
2018-09-14T01:24:04.250Z,1012.56
2018-09-14T01:25:04.206Z,1012.50
2018-09-14T01:26:04.177Z,1012.51
2018-09-14T01:27:04.137Z,1012.53
2018-09-14T01:28:04.101Z,1012.43
2018-09-14T01:29:04.064Z,1012.55
2018-09-14T01:30:04.029Z,1012.47
2018-09-14T01:31:04.000Z,1012.53
2018-09-14T01:32:03.984Z,1012.55
2018-09-14T01:33:03.929Z,1012.50
2018-09-14T01:34:03.903Z,1012.53
2018-09-14T01:35:03.862Z,1012.53
2018-09-14T01:36:03.836Z,1012.53
2018-09-14T01:37:03.790Z,1012.55
2018-09-14T01:38:03.766Z,1012.54
2018-09-14T01:39:03.726Z,1012.55
2018-09-14T01:40:03.690Z,1012.56
2018-09-14T01:41:03.653Z,1012.53
2018-09-14T01:42:03.640Z,1012.53
2018-09-14T01:43:03.584Z,1012.58
2018-09-14T01:44:03.555Z,1012.56
2018-09-14T01:45:03.519Z,1012.56
2018-09-14T01:46:03.485Z,1012.54
2018-09-14T01:47:03.459Z,1012.57
2018-09-14T01:48:03.414Z,1012.54
2018-09-14T01:49:03.381Z,1012.51
2018-09-14T01:50:03.355Z,1012.52
2018-09-14T01:51:03.315Z,1012.51
2018-09-14T01:52:03.280Z,1012.47
2018-09-14T01:53:03.246Z,1012.42
2018-09-14T01:54:03.206Z,1012.47
2018-09-14T01:55:03.180Z,1012.43
2018-09-14T01:56:03.153Z,1012.39
2018-09-14T01:57:03.104Z,1012.45
2018-09-14T01:58:03.072Z,1012.39
2018-09-14T01:59:03.047Z,1012.43
2018-09-14T02:00:03.013Z,1012.37
2018-09-14T02:01:02.964Z,1012.40
2018-09-14T02:02:02.959Z,1012.44
2018-09-14T02:03:02.903Z,1012.40
2018-09-14T02:04:02.862Z,1012.44
2018-09-14T02:05:02.847Z,1012.42
2018-09-14T02:06:02.797Z,1012.48
2018-09-14T02:07:02.765Z,1012.46
2018-09-14T02:08:02.726Z,1012.44
2018-09-14T02:09:02.692Z,1012.41
2018-09-14T02:10:02.661Z,1012.44
2018-09-14T02:11:02.630Z,1012.50
2018-09-14T02:12:02.590Z,1012.40
2018-09-14T02:13:02.560Z,1012.49
2018-09-14T02:14:02.523Z,1012.48
2018-09-14T02:15:02.485Z,1012.47
2018-09-14T02:16:02.456Z,1012.43
2018-09-14T02:17:02.421Z,1012.44
2018-09-14T02:18:02.379Z,1012.41
2018-09-14T02:19:02.359Z,1012.42
2018-09-14T02:20:02.312Z,1012.41
2018-09-14T02:21:02.286Z,1012.40
2018-09-14T02:22:02.244Z,1012.37
2018-09-14T02:23:02.206Z,1012.36
2018-09-14T02:24:02.177Z,1012.33
2018-09-14T02:25:02.134Z,1012.34
2018-09-14T02:26:02.112Z,1012.33
2018-09-14T02:27:02.166Z,1012.33
2018-09-14T02:28:02.165Z,1012.31
2018-09-14T02:29:02.001Z,1012.22
2018-09-14T02:30:01.973Z,1012.31
2018-09-14T02:31:01.929Z,1012.32
2018-09-14T02:32:01.893Z,1012.30
2018-09-14T02:33:01.856Z,1012.31
2018-09-14T02:34:01.824Z,1012.28
2018-09-14T02:35:01.793Z,1012.30
2018-09-14T02:36:01.755Z,1012.26
2018-09-14T02:37:01.728Z,1012.33
2018-09-14T02:38:01.696Z,1012.30
2018-09-14T02:39:02.093Z,1012.28
2018-09-14T02:40:01.627Z,1012.24
2018-09-14T02:41:01.584Z,1012.23
2018-09-14T02:42:01.540Z,1012.20
2018-09-14T02:43:01.523Z,1012.25
2018-09-14T02:44:01.471Z,1012.24
2018-09-14T02:45:01.513Z,1012.20
2018-09-14T02:46:01.404Z,1012.28
2018-09-14T02:47:01.381Z,1012.26
2018-09-14T02:48:01.340Z,1012.23
2018-09-14T02:49:01.304Z,1012.27
2018-09-14T02:50:01.282Z,1012.23
2018-09-14T02:51:01.243Z,1012.21
2018-09-14T02:52:01.200Z,1012.26
2018-09-14T02:53:01.170Z,1012.25
2018-09-14T02:54:01.847Z,1012.26
2018-09-14T02:55:01.104Z,1012.32
2018-09-14T02:56:01.056Z,1012.31
2018-09-14T02:57:01.023Z,1012.34
2018-09-14T02:58:00.985Z,1012.36
2018-09-14T02:59:00.958Z,1012.33
2018-09-14T03:00:00.958Z,1012.36
2018-09-14T03:01:00.885Z,1012.32
2018-09-14T03:02:00.844Z,1012.36
2018-09-14T03:03:00.814Z,1012.39
2018-09-14T03:04:00.784Z,1012.35
2018-09-14T03:05:00.758Z,1012.38
2018-09-14T03:06:00.704Z,1012.36
2018-09-14T03:07:00.681Z,1012.35
2018-09-14T03:08:00.648Z,1012.32
2018-09-14T03:09:00.598Z,1012.30
2018-09-14T03:10:00.565Z,1012.32
2018-09-14T03:11:00.530Z,1012.27
2018-09-14T03:12:00.497Z,1012.29
2018-09-14T03:13:00.461Z,1012.28
2018-09-14T03:14:00.431Z,1012.32
2018-09-14T03:15:00.406Z,1012.27
2018-09-14T03:16:00.353Z,1012.24
2018-09-14T03:17:00.336Z,1012.22
2018-09-14T03:18:00.283Z,1012.26
2018-09-14T03:19:00.256Z,1012.21
2018-09-14T03:20:00.221Z,1012.29
2018-09-14T03:21:00.175Z,1012.24
2018-09-14T03:22:00.153Z,1012.23
2018-09-14T03:23:00.116Z,1012.21
2018-09-14T03:24:00.108Z,1012.23
2018-09-14T03:25:00.035Z,1012.18
2018-09-14T03:26:00.019Z,1012.18
2018-09-14T03:26:59.970Z,1012.17
2018-09-14T03:27:59.934Z,1012.15
2018-09-14T03:28:59.898Z,1012.08
2018-09-14T03:29:59.864Z,1012.14
2018-09-14T03:30:59.839Z,1012.20
2018-09-14T03:31:59.789Z,1012.16
2018-09-14T03:32:59.772Z,1012.14
2018-09-14T03:33:59.720Z,1012.21
2018-09-14T03:34:59.685Z,1012.21
2018-09-14T03:35:59.651Z,1012.24
2018-09-14T03:36:59.625Z,1012.23
2018-09-14T03:37:59.583Z,1012.21
2018-09-14T03:38:59.555Z,1012.18
2018-09-14T03:39:59.523Z,1012.18
2018-09-14T03:40:59.481Z,1012.18
2018-09-14T03:41:59.442Z,1012.21
2018-09-14T03:42:59.411Z,1012.13
2018-09-14T03:43:59.388Z,1012.21
2018-09-14T03:44:59.354Z,1012.21
2018-09-14T03:45:59.479Z,1012.21
2018-09-14T03:46:59.275Z,1012.18
2018-09-14T03:47:59.229Z,1012.24
2018-09-14T03:48:59.189Z,1012.23
2018-09-14T03:49:59.155Z,1012.22
2018-09-14T03:50:59.122Z,1012.20
2018-09-14T03:51:59.112Z,1012.25
2018-09-14T03:52:59.048Z,1012.18
2018-09-14T03:53:59.020Z,1012.20
2018-09-14T03:54:58.980Z,1012.28
2018-09-14T03:55:58.948Z,1012.26
2018-09-14T03:56:58.915Z,1012.24
2018-09-14T03:57:58.877Z,1012.28
2018-09-14T03:58:58.837Z,1012.28
2018-09-14T03:59:58.828Z,1012.30
2018-09-14T04:00:58.768Z,1012.27
2018-09-14T04:01:58.728Z,1012.28
2018-09-14T04:02:58.705Z,1012.31
2018-09-14T04:03:59.337Z,1012.27
2018-09-14T04:04:58.634Z,1012.26
2018-09-14T04:05:58.620Z,1012.30
2018-09-14T04:06:58.554Z,1012.29
2018-09-14T04:07:58.542Z,1012.28
2018-09-14T04:08:58.482Z,1012.33
2018-09-14T04:09:58.449Z,1012.32
2018-09-14T04:10:58.420Z,1012.28
2018-09-14T04:11:58.378Z,1012.25
2018-09-14T04:12:58.352Z,1012.25
2018-09-14T04:13:58.310Z,1012.29
2018-09-14T04:14:58.278Z,1012.29
2018-09-14T04:15:58.559Z,1012.31
2018-09-14T04:16:58.205Z,1012.33
2018-09-14T04:17:58.171Z,1012.33
2018-09-14T04:18:58.129Z,1012.31
2018-09-14T04:19:58.097Z,1012.33
2018-09-14T04:20:58.057Z,1012.29
2018-09-14T04:21:58.031Z,1012.22
2018-09-14T04:22:58.020Z,1012.17
2018-09-14T04:23:57.954Z,1012.23
2018-09-14T04:24:57.921Z,1012.22
2018-09-14T04:25:57.883Z,1012.15
2018-09-14T04:26:57.852Z,1012.21
2018-09-14T04:27:57.867Z,1012.22
2018-09-14T04:28:57.777Z,1012.25
2018-09-14T04:29:57.754Z,1012.14
2018-09-14T04:30:57.747Z,1012.18
2018-09-14T04:31:57.680Z,1012.21
2018-09-14T04:32:57.652Z,1012.13
2018-09-14T04:33:57.976Z,1012.22
2018-09-14T04:34:57.568Z,1012.18
2018-09-14T04:35:57.531Z,1012.21
2018-09-14T04:36:57.493Z,1012.16
2018-09-14T04:37:57.574Z,1012.22
2018-09-14T04:38:57.428Z,1012.15
2018-09-14T04:39:57.392Z,1012.16
2018-09-14T04:40:57.356Z,1012.09
2018-09-14T04:41:57.328Z,1012.13
2018-09-14T04:42:57.297Z,1012.13
2018-09-14T04:43:57.253Z,1012.19
2018-09-14T04:44:57.222Z,1012.21
2018-09-14T04:45:57.175Z,1012.26
2018-09-14T04:46:57.144Z,1012.28
2018-09-14T04:47:57.117Z,1012.25
2018-09-14T04:48:57.080Z,1012.29
2018-09-14T04:49:57.053Z,1012.21
2018-09-14T04:50:57.006Z,1012.25
2018-09-14T04:51:56.973Z,1012.25
2018-09-14T04:52:56.937Z,1012.21
2018-09-14T04:53:56.917Z,1012.19
2018-09-14T04:54:56.865Z,1012.23
2018-09-14T04:55:56.839Z,1012.23
2018-09-14T04:56:56.792Z,1012.21
2018-09-14T04:57:56.751Z,1012.24
2018-09-14T04:58:56.725Z,1012.21
2018-09-14T04:59:56.694Z,1012.22
2018-09-14T05:00:56.686Z,1012.25
2018-09-14T05:01:56.638Z,1012.23
2018-09-14T05:02:56.578Z,1012.23
2018-09-14T05:03:56.543Z,1012.23
2018-09-14T05:04:56.508Z,1012.20
2018-09-14T05:05:56.468Z,1012.19
2018-09-14T05:06:56.440Z,1012.21
2018-09-14T05:07:56.396Z,1012.23
2018-09-14T05:08:56.364Z,1012.17
2018-09-14T05:09:56.353Z,1012.22
2018-09-14T05:10:56.302Z,1012.23
2018-09-14T05:11:56.275Z,1012.26
2018-09-14T05:12:56.223Z,1012.25
2018-09-14T05:13:56.234Z,1012.25
2018-09-14T05:14:56.152Z,1012.26
2018-09-14T05:15:56.119Z,1012.28
2018-09-14T05:16:56.084Z,1012.30
2018-09-14T05:17:56.039Z,1012.16
2018-09-14T05:18:56.026Z,1012.15
2018-09-14T05:19:55.972Z,1012.30
2018-09-14T05:20:55.934Z,1012.21
2018-09-14T05:21:55.901Z,1012.29
2018-09-14T05:22:55.874Z,1012.29
2018-09-14T05:23:55.886Z,1012.31
2018-09-14T05:24:55.855Z,1012.29
2018-09-14T05:25:55.758Z,1012.32
2018-09-14T05:26:55.739Z,1012.30
2018-09-14T05:27:55.687Z,1012.24
2018-09-14T05:28:55.670Z,1012.32
2018-09-14T05:29:55.620Z,1012.35
2018-09-14T05:30:55.583Z,1012.36
2018-09-14T05:31:55.563Z,1012.33
2018-09-14T05:32:55.538Z,1012.37
2018-09-14T05:33:55.477Z,1012.37
2018-09-14T05:34:55.466Z,1012.42
2018-09-14T05:35:55.411Z,1012.41
2018-09-14T05:36:55.367Z,1012.39
2018-09-14T05:37:55.332Z,1012.49
2018-09-14T05:38:55.301Z,1012.47
2018-09-14T05:39:55.275Z,1012.41
2018-09-14T05:40:55.239Z,1012.41
2018-09-14T05:41:55.232Z,1012.45
2018-09-14T05:42:55.167Z,1012.46
2018-09-14T05:43:55.132Z,1012.50
2018-09-14T05:44:55.096Z,1012.48
2018-09-14T05:45:55.051Z,1012.44
2018-09-14T05:46:55.025Z,1012.44
2018-09-14T05:47:55.007Z,1012.51
2018-09-14T05:48:54.949Z,1012.47
2018-09-14T05:49:54.921Z,1012.58
2018-09-14T05:50:54.877Z,1012.49
2018-09-14T05:51:54.842Z,1012.48
2018-09-14T05:52:54.819Z,1012.46
2018-09-14T05:53:54.788Z,1012.54
2018-09-14T05:54:54.742Z,1012.49
2018-09-14T05:55:54.704Z,1012.56
2018-09-14T05:56:54.678Z,1012.52
2018-09-14T05:57:54.645Z,1012.56
2018-09-14T05:58:54.594Z,1012.53
2018-09-14T05:59:54.602Z,1012.58
2018-09-14T06:00:54.539Z,1012.55
2018-09-14T06:01:54.505Z,1012.60
2018-09-14T06:02:54.470Z,1012.56
2018-09-14T06:03:54.465Z,1012.60
2018-09-14T06:04:54.390Z,1012.54
2018-09-14T06:05:54.382Z,1012.57
2018-09-14T06:06:54.339Z,1012.62
2018-09-14T06:07:54.323Z,1012.55
2018-09-14T06:08:54.257Z,1012.61
2018-09-14T06:09:54.228Z,1012.61
2018-09-14T06:10:54.185Z,1012.57
2018-09-14T06:11:54.143Z,1012.55
2018-09-14T06:12:54.108Z,1012.60
2018-09-14T06:13:54.073Z,1012.59
2018-09-14T06:14:54.067Z,1012.59
2018-09-14T06:15:54.047Z,1012.59
2018-09-14T06:16:54.057Z,1012.61
2018-09-14T06:17:53.958Z,1012.65
2018-09-14T06:18:53.908Z,1012.57
2018-09-14T06:19:53.907Z,1012.64
2018-09-14T06:20:53.829Z,1012.66
2018-09-14T06:21:53.797Z,1012.65
2018-09-14T06:22:53.773Z,1012.68
2018-09-14T06:23:53.723Z,1012.71
2018-09-14T06:24:53.690Z,1012.77
2018-09-14T06:25:53.687Z,1012.63
2018-09-14T06:26:53.617Z,1012.67
2018-09-14T06:27:53.595Z,1012.64
2018-09-14T06:28:53.601Z,1012.66
2018-09-14T06:29:53.547Z,1012.70
2018-09-14T06:30:53.496Z,1012.68
2018-09-14T06:31:53.448Z,1012.63
2018-09-14T06:32:53.418Z,1012.62
2018-09-14T06:33:53.388Z,1012.69
2018-09-14T06:34:53.348Z,1012.69
2018-09-14T06:35:53.313Z,1012.73
2018-09-14T06:36:53.288Z,1012.73
2018-09-14T06:37:53.252Z,1012.78
2018-09-14T06:38:53.218Z,1012.74
2018-09-14T06:39:53.271Z,1012.75
2018-09-14T06:40:53.150Z,1012.78
2018-09-14T06:41:53.125Z,1012.78
2018-09-14T06:42:53.087Z,1012.84
2018-09-14T06:43:53.046Z,1012.83
2018-09-14T06:44:53.054Z,1012.86
2018-09-14T06:45:53.002Z,1012.85
2018-09-14T06:46:52.953Z,1012.78
2018-09-14T06:47:52.937Z,1012.83
2018-09-14T06:48:52.882Z,1012.85
2018-09-14T06:49:52.868Z,1012.86
2018-09-14T06:50:52.822Z,1012.83
2018-09-14T06:51:52.789Z,1012.74
2018-09-14T06:52:52.756Z,1012.81
2018-09-14T06:53:52.747Z,1012.79
2018-09-14T06:54:52.706Z,1012.84
2018-09-14T06:55:52.690Z,1012.82
2018-09-14T06:56:52.629Z,1012.83
2018-09-14T06:57:52.604Z,1012.86
2018-09-14T06:58:52.574Z,1012.82
2018-09-14T06:59:52.534Z,1012.86
2018-09-14T07:00:52.497Z,1012.79
2018-09-14T07:01:52.468Z,1012.84
2018-09-14T07:02:52.442Z,1012.78
2018-09-14T07:03:52.413Z,1012.77
2018-09-14T07:04:52.402Z,1012.75
2018-09-14T07:05:52.353Z,1012.78
2018-09-14T07:06:52.312Z,1012.83
2018-09-14T07:07:52.290Z,1012.78
2018-09-14T07:08:52.273Z,1012.78
2018-09-14T07:09:52.220Z,1012.79
2018-09-14T07:10:52.182Z,1012.83
2018-09-14T07:11:52.156Z,1012.84
2018-09-14T07:12:52.125Z,1012.87
2018-09-14T07:13:52.104Z,1012.80
2018-09-14T07:14:52.064Z,1012.90
2018-09-14T07:15:52.035Z,1012.84
2018-09-14T07:16:52.015Z,1012.83
2018-09-14T07:17:51.975Z,1012.89
2018-09-14T07:18:51.974Z,1012.83
2018-09-14T07:19:51.949Z,1012.88
2018-09-14T07:20:51.898Z,1012.80
2018-09-14T07:21:51.954Z,1012.93
2018-09-14T07:22:51.841Z,1012.92
2018-09-14T07:23:51.791Z,1012.88
2018-09-14T07:24:51.920Z,1012.94
2018-09-14T07:25:51.756Z,1012.89
2018-09-14T07:26:51.726Z,1012.92
2018-09-14T07:27:51.675Z,1012.93
2018-09-14T07:28:51.701Z,1012.93
2018-09-14T07:29:51.660Z,1012.95
2018-09-14T07:30:51.641Z,1012.97
2018-09-14T07:31:51.672Z,1012.96
2018-09-14T07:32:51.547Z,1013.00
2018-09-14T07:33:51.500Z,1012.97
2018-09-14T07:34:51.485Z,1012.99
2018-09-14T07:35:51.459Z,1012.93
2018-09-14T07:36:52.097Z,1013.05
2018-09-14T07:37:51.389Z,1013.01
2018-09-14T07:38:51.362Z,1013.03
2018-09-14T07:39:51.363Z,1012.95
2018-09-14T07:40:51.332Z,1012.99
2018-09-14T07:41:51.278Z,1013.02
2018-09-14T07:42:51.245Z,1013.06
2018-09-14T07:43:51.220Z,1013.06
2018-09-14T07:44:51.202Z,1013.04
2018-09-14T07:45:51.177Z,1012.98
2018-09-14T07:46:51.140Z,1013.01
2018-09-14T07:47:51.120Z,1013.03
2018-09-14T07:48:51.083Z,1013.07
2018-09-14T07:49:51.066Z,1013.04
2018-09-14T07:50:51.064Z,1013.07
2018-09-14T07:51:50.996Z,1013.05
2018-09-14T07:53:50.953Z,1013.08
2018-09-14T07:54:50.924Z,1013.08
2018-09-14T08:17:50.322Z,1013.08
2018-09-14T08:18:50.298Z,1013.10
2018-09-14T08:19:50.283Z,1013.11
2018-09-14T08:21:50.399Z,1013.11
2018-09-14T08:23:50.172Z,1013.07
2018-09-14T08:24:50.182Z,1013.11
2018-09-14T08:25:50.127Z,1013.08
2018-09-14T08:26:50.147Z,1013.04
2018-09-14T08:27:50.084Z,1013.00
2018-09-14T08:28:50.050Z,1013.04
2018-09-14T08:29:50.027Z,1013.02
2018-09-14T08:30:50.003Z,1012.97
2018-09-14T08:31:49.973Z,1013.02
2018-09-14T08:32:49.964Z,1013.03
2018-09-14T08:33:49.951Z,1013.05
2018-09-14T08:34:49.940Z,1013.03
2018-09-14T08:35:49.886Z,1013.03
2018-09-14T08:36:49.861Z,1013.00
2018-09-14T08:37:49.829Z,1013.13
2018-09-14T08:38:49.806Z,1013.09
2018-09-14T08:39:49.786Z,1013.09
2018-09-14T08:40:49.757Z,1013.12
2018-09-14T08:41:49.769Z,1013.10
2018-09-14T08:42:49.708Z,1013.14
2018-09-14T08:43:49.683Z,1013.14
2018-09-14T08:44:49.674Z,1013.17
2018-09-14T08:45:49.748Z,1013.20
2018-09-14T08:46:49.616Z,1013.19
2018-09-14T08:47:49.667Z,1013.22
2018-09-14T08:48:50.250Z,1013.10
2018-09-14T08:49:49.544Z,1013.14
2018-09-14T08:50:49.517Z,1013.12
2018-09-14T08:51:49.491Z,1013.19
2018-09-14T08:52:49.465Z,1013.14
2018-09-14T08:53:49.444Z,1013.19
2018-09-14T08:54:49.456Z,1013.20
2018-09-14T08:55:49.400Z,1013.14
2018-09-14T08:56:49.373Z,1013.15
2018-09-14T08:57:49.352Z,1013.14
2018-09-14T08:58:49.338Z,1013.13
2018-09-14T08:59:49.328Z,1013.15
2018-09-14T09:00:49.361Z,1013.12
2018-09-14T09:01:49.264Z,1013.11
2018-09-14T09:02:49.234Z,1013.14
2018-09-14T09:03:49.248Z,1013.16
2018-09-14T09:04:49.218Z,1013.09
2018-09-14T09:05:49.169Z,1013.16
2018-09-14T09:06:49.167Z,1013.11
2018-09-14T09:07:49.118Z,1013.12
2018-09-14T09:08:49.085Z,1013.10
2018-09-14T09:09:49.067Z,1013.12
2018-09-14T09:10:49.035Z,1013.16
2018-09-14T09:11:49.032Z,1013.15
2018-09-14T09:12:49.009Z,1013.14
2018-09-14T09:13:48.991Z,1013.14
2018-09-14T09:14:48.943Z,1013.16
2018-09-14T09:15:48.923Z,1013.19
2018-09-14T09:16:48.900Z,1013.08
2018-09-14T09:17:48.946Z,1013.15
2018-09-14T09:18:48.874Z,1013.11
2018-09-14T09:19:48.848Z,1013.12
2018-09-14T09:20:48.803Z,1013.20
2018-09-14T09:21:48.782Z,1013.20
2018-09-14T09:22:48.762Z,1013.18
2018-09-14T09:23:48.740Z,1013.17
2018-09-14T09:24:48.733Z,1013.11
2018-09-14T09:25:48.715Z,1013.12
2018-09-14T09:26:48.707Z,1013.17
2018-09-14T09:27:48.650Z,1013.11
2018-09-14T09:28:48.615Z,1013.06
2018-09-14T09:29:48.597Z,1013.16
2018-09-14T09:30:48.582Z,1013.12
2018-09-14T09:31:48.548Z,1013.15
2018-09-14T09:32:48.522Z,1013.07
2018-09-14T09:33:48.508Z,1013.09
2018-09-14T09:34:48.477Z,1013.09
2018-09-14T09:35:48.476Z,1013.09
2018-09-14T09:36:48.436Z,1013.05
2018-09-14T09:37:48.409Z,1013.07
2018-09-14T09:38:48.764Z,1013.08
2018-09-14T09:39:48.368Z,1013.06
2018-09-14T09:40:48.347Z,1012.99
2018-09-14T09:41:48.318Z,1013.03
2018-09-14T09:42:48.292Z,1013.05
2018-09-14T09:43:48.316Z,1013.01
2018-09-14T09:44:48.248Z,1013.02
2018-09-14T09:45:48.237Z,1013.01
2018-09-14T09:46:48.212Z,1012.98
2018-09-14T09:47:48.183Z,1013.03
2018-09-14T09:48:48.215Z,1013.02
2018-09-14T09:49:48.147Z,1013.04
2018-09-14T09:50:48.215Z,1013.00
2018-09-14T09:51:48.096Z,1012.99
2018-09-14T09:52:48.065Z,1012.98
2018-09-14T09:53:48.062Z,1012.97
2018-09-14T09:54:48.059Z,1012.91
2018-09-14T09:55:48.002Z,1012.94
2018-09-14T09:56:48.033Z,1012.91
2018-09-14T09:57:47.956Z,1012.92
2018-09-14T09:58:47.927Z,1012.93
2018-09-14T09:59:47.923Z,1012.94
2018-09-14T10:00:47.921Z,1012.89
2018-09-14T10:01:47.865Z,1012.83
2018-09-14T10:02:47.872Z,1012.88
2018-09-14T10:03:47.920Z,1012.89
2018-09-14T10:04:47.808Z,1012.94
2018-09-14T10:05:47.796Z,1012.85
2018-09-14T10:06:47.799Z,1012.90
2018-09-14T10:07:47.741Z,1012.90
2018-09-14T10:08:47.733Z,1012.92
2018-09-14T10:09:47.687Z,1012.92
2018-09-14T10:10:47.670Z,1012.91
2018-09-14T10:11:47.644Z,1012.93
2018-09-14T10:12:47.620Z,1012.94
2018-09-14T10:13:47.607Z,1012.96
2018-09-14T10:14:47.587Z,1012.91
2018-09-14T10:15:47.571Z,1012.92
2018-09-14T10:16:47.858Z,1012.92
2018-09-14T10:17:47.542Z,1012.89
2018-09-14T10:18:47.534Z,1012.88
2018-09-14T10:19:47.476Z,1012.90
2018-09-14T10:20:47.516Z,1012.90
2018-09-14T10:21:47.491Z,1012.84
2018-09-14T10:22:47.465Z,1012.84
2018-09-14T10:23:47.382Z,1012.86
2018-09-14T10:24:47.396Z,1012.84
2018-09-14T10:25:47.345Z,1012.77
2018-09-14T10:26:47.357Z,1012.81
2018-09-14T10:27:47.299Z,1012.81
2018-09-14T10:28:47.348Z,1012.84
2018-09-14T10:29:47.268Z,1012.81
2018-09-14T10:30:47.237Z,1012.79
2018-09-14T10:31:47.220Z,1012.81
2018-09-14T10:32:47.203Z,1012.75
2018-09-14T10:33:47.192Z,1012.69
2018-09-14T10:34:47.173Z,1012.56
2018-09-14T10:35:47.153Z,1012.64
2018-09-14T10:36:47.122Z,1012.66
2018-09-14T10:37:47.114Z,1012.60
2018-09-14T10:38:47.092Z,1012.52
2018-09-14T10:39:47.058Z,1012.57
2018-09-14T10:40:47.133Z,1012.61
2018-09-14T10:41:47.003Z,1012.54
2018-09-14T10:42:47.409Z,1012.52
2018-09-14T10:43:46.983Z,1012.51
2018-09-14T10:44:46.958Z,1012.51
2018-09-14T10:45:46.951Z,1012.56
2018-09-14T10:46:46.894Z,1012.45
2018-09-14T10:47:46.880Z,1012.50
2018-09-14T10:48:46.860Z,1012.54
2018-09-14T10:49:46.825Z,1012.56
2018-09-14T10:50:47.502Z,1012.56
2018-09-14T10:51:46.785Z,1012.56
2018-09-14T10:52:46.811Z,1012.48
2018-09-14T10:53:46.777Z,1012.43
2018-09-14T10:54:46.796Z,1012.34
2018-09-14T10:55:47.389Z,1012.47
2018-09-14T10:56:46.675Z,1012.36
2018-09-14T10:57:46.662Z,1012.41
2018-09-14T10:58:46.627Z,1012.37
2018-09-14T10:59:46.613Z,1012.34
2018-09-14T11:00:46.628Z,1012.49
2018-09-14T11:01:46.568Z,1012.42
2018-09-14T11:02:46.554Z,1012.40
2018-09-14T11:03:46.512Z,1012.37
2018-09-14T11:04:46.503Z,1012.22
2018-09-14T11:05:46.474Z,1012.35
2018-09-14T11:06:46.957Z,1012.38
2018-09-14T11:07:46.440Z,1012.41
2018-09-14T11:08:46.423Z,1012.49
2018-09-14T11:09:46.407Z,1012.45
2018-09-14T11:10:46.363Z,1012.36
2018-09-14T11:11:46.333Z,1012.45
2018-09-14T11:12:46.480Z,1012.30
2018-09-14T11:13:46.280Z,1012.21
2018-09-14T11:14:46.264Z,1012.23
2018-09-14T11:15:46.286Z,1012.23
2018-09-14T11:16:46.213Z,1012.21
2018-09-14T11:17:46.190Z,1012.21
2018-09-14T11:18:46.302Z,1012.24
2018-09-14T11:19:46.148Z,1012.21
2018-09-14T11:20:46.115Z,1012.19
2018-09-14T11:21:46.101Z,1012.21
2018-09-14T11:22:46.129Z,1012.27
2018-09-14T11:23:46.058Z,1012.40
2018-09-14T11:24:46.232Z,1012.28
2018-09-14T11:25:46.081Z,1012.33
2018-09-14T11:26:45.990Z,1012.35
2018-09-14T11:27:45.957Z,1012.22
2018-09-14T11:28:45.923Z,1012.26
2018-09-14T11:29:45.936Z,1012.45
2018-09-14T11:30:45.898Z,1012.11
2018-09-14T11:31:45.874Z,1012.16
2018-09-14T11:32:45.838Z,1012.18
2018-09-14T11:33:45.809Z,1012.11
2018-09-14T11:34:45.792Z,1012.22
2018-09-14T11:35:45.758Z,1012.09
2018-09-14T11:36:45.760Z,1012.09
2018-09-14T11:37:45.769Z,1012.07
2018-09-14T11:38:45.695Z,1012.08
2018-09-14T11:39:45.723Z,1012.11
2018-09-14T11:40:45.649Z,1012.37
2018-09-14T11:41:45.619Z,1012.36
2018-09-14T11:42:45.606Z,1012.07
2018-09-14T11:43:45.580Z,1012.07
2018-09-14T11:44:45.543Z,1012.26
2018-09-14T11:45:45.525Z,1011.94
2018-09-14T11:46:45.517Z,1011.92
2018-09-14T11:47:45.483Z,1011.93
2018-09-14T11:48:45.468Z,1011.85
2018-09-14T11:49:45.433Z,1011.80
2018-09-14T11:50:45.410Z,1011.87
2018-09-14T11:51:45.385Z,1011.79
2018-09-14T11:52:45.380Z,1011.84
2018-09-14T11:53:45.348Z,1011.87
2018-09-14T11:54:45.311Z,1011.81
2018-09-14T11:55:45.297Z,1011.86
2018-09-14T11:56:45.262Z,1012.01
2018-09-14T11:57:45.238Z,1011.82
2018-09-14T11:58:45.220Z,1011.84
2018-09-14T11:59:45.180Z,1011.87
2018-09-14T12:00:45.160Z,1011.83
2018-09-14T12:01:45.140Z,1012.09
2018-09-14T12:02:45.109Z,1012.00
2018-09-14T12:03:45.089Z,1012.05
2018-09-14T12:04:45.058Z,1012.02
2018-09-14T12:05:45.039Z,1012.03
2018-09-14T12:06:45.014Z,1012.02
2018-09-14T12:07:45.004Z,1011.90
2018-09-14T12:08:44.964Z,1011.95
2018-09-14T12:09:44.946Z,1011.96
2018-09-14T12:10:44.916Z,1011.94
2018-09-14T12:11:44.897Z,1011.99
2018-09-14T12:12:44.904Z,1011.94
2018-09-14T12:13:45.236Z,1011.96
2018-09-14T12:14:44.856Z,1011.92
2018-09-14T12:15:44.807Z,1011.90
2018-09-14T12:16:44.810Z,1011.83
2018-09-14T12:17:44.764Z,1011.77
2018-09-14T12:18:44.736Z,1011.66
2018-09-14T12:19:44.729Z,1011.80
2018-09-14T12:20:44.692Z,1011.80
2018-09-14T12:21:44.669Z,1011.81
2018-09-14T12:22:44.647Z,1011.84
2018-09-14T12:23:44.643Z,1011.84
2018-09-14T12:24:44.608Z,1011.74
2018-09-14T12:25:45.516Z,1011.78
2018-09-14T12:26:44.565Z,1011.52
2018-09-14T12:27:44.560Z,1011.66
2018-09-14T12:28:44.518Z,1011.79
2018-09-14T12:29:44.502Z,1011.71